sensor_id;sensor_type;location;lat;lon;timestamp;pressure;altitude;pressure_sealevel;temperature;humidity
57442;BME280;43284;47.042;15.498;2023-04-19T00:00:58;97324.91;;;8.33;92.53
57442;BME280;43284;47.042;15.498;2023-04-19T00:03:26;97319.44;;;8.41;89.02
57442;BME280;43284;47.042;15.498;2023-04-19T00:05:52;97311.56;;;8.42;91.27
57442;BME280;43284;47.042;15.498;2023-04-19T00:08:23;97315.13;;;8.40;91.92
57442;BME280;43284;47.042;15.498;2023-04-19T00:10:48;97308.25;;;8.61;87.68
57442;BME280;43284;47.042;15.498;2023-04-19T00:13:14;97305.56;;;8.64;84.99
57442;BME280;43284;47.042;15.498;2023-04-19T00:15:39;97298.75;;;8.60;86.72
57442;BME280;43284;47.042;15.498;2023-04-19T00:18:05;97292.69;;;8.59;86.58
57442;BME280;43284;47.042;15.498;2023-04-19T00:20:31;97288.59;;;8.52;87.46
57442;BME280;43284;47.042;15.498;2023-04-19T00:22:57;97276.94;;;8.39;89.96
57442;BME280;43284;47.042;15.498;2023-04-19T00:25:23;97280.13;;;8.23;91.70
57442;BME280;43284;47.042;15.498;2023-04-19T00:27:49;97259.50;;;8.17;92.65
57442;BME280;43284;47.042;15.498;2023-04-19T00:30:15;97269.75;;;8.22;92.26
57442;BME280;43284;47.042;15.498;2023-04-19T00:32:40;97268.25;;;8.16;91.75
57442;BME280;43284;47.042;15.498;2023-04-19T00:35:06;97257.16;;;8.11;93.47
57442;BME280;43284;47.042;15.498;2023-04-19T00:37:32;97266.69;;;8.11;94.18
57442;BME280;43284;47.042;15.498;2023-04-19T00:39:57;97262.28;;;8.13;92.49
57442;BME280;43284;47.042;15.498;2023-04-19T00:42:23;97261.59;;;8.31;88.72
57442;BME280;43284;47.042;15.498;2023-04-19T00:44:48;97247.34;;;8.41;84.83
57442;BME280;43284;47.042;15.498;2023-04-19T00:47:14;97250.56;;;8.48;82.57
57442;BME280;43284;47.042;15.498;2023-04-19T00:49:39;97253.09;;;8.50;83.07
57442;BME280;43284;47.042;15.498;2023-04-19T00:52:07;97253.94;;;8.50;82.83
57442;BME280;43284;47.042;15.498;2023-04-19T00:54:32;97252.22;;;8.51;82.99
57442;BME280;43284;47.042;15.498;2023-04-19T00:56:58;97243.81;;;8.66;80.29
57442;BME280;43284;47.042;15.498;2023-04-19T00:59:24;97238.81;;;8.60;83.93
57442;BME280;43284;47.042;15.498;2023-04-19T01:01:50;97248.81;;;8.49;86.50
57442;BME280;43284;47.042;15.498;2023-04-19T01:04:15;97253.16;;;8.48;86.26
57442;BME280;43284;47.042;15.498;2023-04-19T01:06:41;97250.75;;;8.43;86.00
57442;BME280;43284;47.042;15.498;2023-04-19T01:09:06;97258.63;;;8.42;85.54
57442;BME280;43284;47.042;15.498;2023-04-19T01:11:33;97247.16;;;8.46;85.75
57442;BME280;43284;47.042;15.498;2023-04-19T01:13:59;97243.00;;;8.42;87.02
57442;BME280;43284;47.042;15.498;2023-04-19T01:16:28;97252.50;;;8.43;87.09
57442;BME280;43284;47.042;15.498;2023-04-19T01:18:53;97245.66;;;8.40;86.10
57442;BME280;43284;47.042;15.498;2023-04-19T01:21:19;97247.16;;;8.46;83.99
57442;BME280;43284;47.042;15.498;2023-04-19T01:23:46;97247.94;;;8.48;84.54
57442;BME280;43284;47.042;15.498;2023-04-19T01:26:12;97240.13;;;8.48;84.10
57442;BME280;43284;47.042;15.498;2023-04-19T01:28:37;97248.03;;;8.47;85.32
57442;BME280;43284;47.042;15.498;2023-04-19T01:31:03;97246.44;;;8.42;87.64
57442;BME280;43284;47.042;15.498;2023-04-19T01:33:28;97241.28;;;8.41;88.49
57442;BME280;43284;47.042;15.498;2023-04-19T01:35:54;97245.72;;;8.37;88.63
57442;BME280;43284;47.042;15.498;2023-04-19T01:38:19;97240.66;;;8.34;88.49
57442;BME280;43284;47.042;15.498;2023-04-19T01:40:45;97237.25;;;8.32;88.51
57442;BME280;43284;47.042;15.498;2023-04-19T01:43:16;97236.31;;;8.11;91.55
57442;BME280;43284;47.042;15.498;2023-04-19T01:45:42;97230.25;;;8.11;91.76
57442;BME280;43284;47.042;15.498;2023-04-19T01:48:07;97235.44;;;8.11;91.03
57442;BME280;43284;47.042;15.498;2023-04-19T01:50:33;97234.75;;;8.07;90.24
57442;BME280;43284;47.042;15.498;2023-04-19T01:52:59;97237.38;;;8.05;89.80
57442;BME280;43284;47.042;15.498;2023-04-19T01:55:24;97234.91;;;8.02;89.62
57442;BME280;43284;47.042;15.498;2023-04-19T01:57:50;97225.34;;;8.03;90.27
57442;BME280;43284;47.042;15.498;2023-04-19T02:00:19;97232.31;;;8.02;90.31
57442;BME280;43284;47.042;15.498;2023-04-19T02:02:45;97225.38;;;8.01;91.03
57442;BME280;43284;47.042;15.498;2023-04-19T02:05:11;97218.59;;;7.97;90.90
57442;BME280;43284;47.042;15.498;2023-04-19T02:07:37;97220.75;;;7.86;91.42
57442;BME280;43284;47.042;15.498;2023-04-19T02:10:03;97222.47;;;7.87;91.63
57442;BME280;43284;47.042;15.498;2023-04-19T02:12:30;97218.19;;;7.84;91.42
57442;BME280;43284;47.042;15.498;2023-04-19T02:14:56;97215.72;;;7.81;91.46
57442;BME280;43284;47.042;15.498;2023-04-19T02:17:25;97212.28;;;7.81;90.64
57442;BME280;43284;47.042;15.498;2023-04-19T02:19:51;97211.47;;;7.79;90.65
57442;BME280;43284;47.042;15.498;2023-04-19T02:22:19;97206.44;;;7.74;91.73
57442;BME280;43284;47.042;15.498;2023-04-19T02:24:46;97210.00;;;7.72;91.50
57442;BME280;43284;47.042;15.498;2023-04-19T02:27:12;97204.06;;;7.68;92.01
57442;BME280;43284;47.042;15.498;2023-04-19T02:29:38;97202.34;;;7.67;91.61
57442;BME280;43284;47.042;15.498;2023-04-19T02:32:04;97200.75;;;7.63;91.62
57442;BME280;43284;47.042;15.498;2023-04-19T02:34:34;97201.81;;;7.59;91.58
57442;BME280;43284;47.042;15.498;2023-04-19T02:37:00;97200.25;;;7.53;91.65
57442;BME280;43284;47.042;15.498;2023-04-19T02:39:26;97189.97;;;7.50;92.18
57442;BME280;43284;47.042;15.498;2023-04-19T02:41:52;97202.59;;;7.36;92.09
57442;BME280;43284;47.042;15.498;2023-04-19T02:44:17;97192.38;;;7.31;93.41
57442;BME280;43284;47.042;15.498;2023-04-19T02:46:51;97199.25;;;7.32;94.16
57442;BME280;43284;47.042;15.498;2023-04-19T02:49:18;97197.63;;;7.30;94.05
57442;BME280;43284;47.042;15.498;2023-04-19T02:51:44;97192.53;;;7.27;94.04
57442;BME280;43284;47.042;15.498;2023-04-19T02:54:10;97192.63;;;7.23;94.10
57442;BME280;43284;47.042;15.498;2023-04-19T02:56:36;97182.38;;;7.19;94.34
57442;BME280;43284;47.042;15.498;2023-04-19T02:59:02;97180.75;;;7.16;94.83
57442;BME280;43284;47.042;15.498;2023-04-19T03:01:28;97180.69;;;6.93;93.14
57442;BME280;43284;47.042;15.498;2023-04-19T03:03:54;97177.59;;;6.81;93.29
57442;BME280;43284;47.042;15.498;2023-04-19T03:06:20;97171.72;;;6.76;93.66
57442;BME280;43284;47.042;15.498;2023-04-19T03:08:45;97182.16;;;6.75;93.92
57442;BME280;43284;47.042;15.498;2023-04-19T03:11:13;97171.75;;;6.75;94.59
57442;BME280;43284;47.042;15.498;2023-04-19T03:13:38;97174.41;;;6.73;95.69
57442;BME280;43284;47.042;15.498;2023-04-19T03:16:06;97170.28;;;6.68;95.60
57442;BME280;43284;47.042;15.498;2023-04-19T03:18:32;97168.66;;;6.64;95.54
57442;BME280;43284;47.042;15.498;2023-04-19T03:20:57;97166.22;;;6.59;95.76
57442;BME280;43284;47.042;15.498;2023-04-19T03:23:24;97162.72;;;6.60;96.77
57442;BME280;43284;47.042;15.498;2023-04-19T03:25:49;97155.78;;;6.60;96.41
57442;BME280;43284;47.042;15.498;2023-04-19T03:28:15;97151.59;;;6.56;96.37
57442;BME280;43284;47.042;15.498;2023-04-19T03:30:41;97155.06;;;6.55;96.70
57442;BME280;43284;47.042;15.498;2023-04-19T03:33:06;97153.28;;;6.57;96.30
57442;BME280;43284;47.042;15.498;2023-04-19T03:35:32;97139.81;;;6.46;95.33
57442;BME280;43284;47.042;15.498;2023-04-19T03:37:57;97145.03;;;6.45;95.96
57442;BME280;43284;47.042;15.498;2023-04-19T03:40:23;97133.84;;;6.43;95.98
57442;BME280;43284;47.042;15.498;2023-04-19T03:42:48;97143.44;;;6.40;96.38
57442;BME280;43284;47.042;15.498;2023-04-19T03:45:14;97145.34;;;6.35;96.23
57442;BME280;43284;47.042;15.498;2023-04-19T03:47:40;97154.03;;;6.34;96.63
57442;BME280;43284;47.042;15.498;2023-04-19T03:50:06;97145.44;;;6.32;96.97
57442;BME280;43284;47.042;15.498;2023-04-19T03:52:31;97151.72;;;6.25;96.30
57442;BME280;43284;47.042;15.498;2023-04-19T03:54:57;97148.69;;;6.12;94.74
57442;BME280;43284;47.042;15.498;2023-04-19T03:57:23;97149.66;;;6.08;95.68
57442;BME280;43284;47.042;15.498;2023-04-19T03:59:48;97146.19;;;6.08;95.25
57442;BME280;43284;47.042;15.498;2023-04-19T04:02:14;97142.03;;;6.04;95.26
57442;BME280;43284;47.042;15.498;2023-04-19T04:04:39;97146.63;;;5.92;94.73
57442;BME280;43284;47.042;15.498;2023-04-19T04:07:05;97154.56;;;5.88;94.59
57442;BME280;43284;47.042;15.498;2023-04-19T04:09:30;97151.41;;;5.78;95.35
57442;BME280;43284;47.042;15.498;2023-04-19T04:11:56;97146.13;;;5.81;96.89
57442;BME280;43284;47.042;15.498;2023-04-19T04:14:22;97151.06;;;5.59;93.45
57442;BME280;43284;47.042;15.498;2023-04-19T04:16:48;97146.34;;;5.44;94.21
57442;BME280;43284;47.042;15.498;2023-04-19T04:19:13;97145.50;;;5.43;94.81
57442;BME280;43284;47.042;15.498;2023-04-19T04:21:39;97145.34;;;5.48;95.59
57442;BME280;43284;47.042;15.498;2023-04-19T04:24:04;97145.34;;;5.48;97.17
57442;BME280;43284;47.042;15.498;2023-04-19T04:26:32;97148.53;;;5.26;95.92
57442;BME280;43284;47.042;15.498;2023-04-19T04:28:59;97158.25;;;5.18;96.33
57442;BME280;43284;47.042;15.498;2023-04-19T04:31:26;97154.66;;;5.24;97.63
57442;BME280;43284;47.042;15.498;2023-04-19T04:33:52;97151.91;;;5.30;98.52
57442;BME280;43284;47.042;15.498;2023-04-19T04:36:19;97146.78;;;5.27;97.95
57442;BME280;43284;47.042;15.498;2023-04-19T04:38:45;97158.75;;;5.32;97.66
57442;BME280;43284;47.042;15.498;2023-04-19T04:41:10;97157.94;;;5.30;97.67
57442;BME280;43284;47.042;15.498;2023-04-19T04:43:36;97155.22;;;5.35;98.89
57442;BME280;43284;47.042;15.498;2023-04-19T04:46:02;97162.00;;;5.41;99.76
57442;BME280;43284;47.042;15.498;2023-04-19T04:48:28;97162.84;;;5.41;99.36
57442;BME280;43284;47.042;15.498;2023-04-19T04:50:55;97161.84;;;5.45;99.08
57442;BME280;43284;47.042;15.498;2023-04-19T04:53:21;97164.94;;;5.58;98.51
57442;BME280;43284;47.042;15.498;2023-04-19T04:55:47;97161.16;;;5.40;95.58
57442;BME280;43284;47.042;15.498;2023-04-19T04:58:13;97162.03;;;5.39;97.41
57442;BME280;43284;47.042;15.498;2023-04-19T05:00:38;97163.16;;;5.29;97.29
57442;BME280;43284;47.042;15.498;2023-04-19T05:03:04;97156.94;;;5.36;98.25
57442;BME280;43284;47.042;15.498;2023-04-19T05:05:29;97159.59;;;5.33;98.20
57442;BME280;43284;47.042;15.498;2023-04-19T05:07:55;97157.75;;;5.38;98.94
57442;BME280;43284;47.042;15.498;2023-04-19T05:10:20;97151.38;;;5.48;100.00
57442;BME280;43284;47.042;15.498;2023-04-19T05:12:46;97155.53;;;5.55;100.00
57442;BME280;43284;47.042;15.498;2023-04-19T05:15:11;97154.44;;;5.63;100.00
57442;BME280;43284;47.042;15.498;2023-04-19T05:17:37;97152.53;;;5.69;100.00
57442;BME280;43284;47.042;15.498;2023-04-19T05:20:03;97154.31;;;5.67;99.50
57442;BME280;43284;47.042;15.498;2023-04-19T05:22:30;97149.75;;;5.75;99.87
57442;BME280;43284;47.042;15.498;2023-04-19T05:24:55;97152.22;;;5.80;100.00
57442;BME280;43284;47.042;15.498;2023-04-19T05:27:21;97150.31;;;5.85;100.00
57442;BME280;43284;47.042;15.498;2023-04-19T05:29:46;97145.75;;;5.93;100.00
57442;BME280;43284;47.042;15.498;2023-04-19T05:32:12;97137.69;;;6.04;100.00
57442;BME280;43284;47.042;15.498;2023-04-19T05:34:37;97134.41;;;6.26;100.00
57442;BME280;43284;47.042;15.498;2023-04-19T05:37:04;97144.56;;;6.32;100.00
57442;BME280;43284;47.042;15.498;2023-04-19T05:39:29;97139.25;;;6.36;100.00
57442;BME280;43284;47.042;15.498;2023-04-19T05:41:55;97143.31;;;6.45;100.00
57442;BME280;43284;47.042;15.498;2023-04-19T05:44:20;97139.50;;;6.55;100.00
57442;BME280;43284;47.042;15.498;2023-04-19T05:46:46;97140.09;;;6.64;100.00
57442;BME280;43284;47.042;15.498;2023-04-19T05:49:11;97140.59;;;6.75;100.00
57442;BME280;43284;47.042;15.498;2023-04-19T05:51:37;97138.47;;;6.86;100.00
57442;BME280;43284;47.042;15.498;2023-04-19T05:54:02;97139.75;;;6.99;100.00
57442;BME280;43284;47.042;15.498;2023-04-19T05:56:28;97140.97;;;7.14;100.00
57442;BME280;43284;47.042;15.498;2023-04-19T05:58:54;97134.38;;;7.29;100.00
57442;BME280;43284;47.042;15.498;2023-04-19T06:01:24;97132.97;;;7.44;98.09
57442;BME280;43284;47.042;15.498;2023-04-19T06:03:49;97130.81;;;7.55;97.85
57442;BME280;43284;47.042;15.498;2023-04-19T06:06:18;97127.81;;;7.66;97.43
57442;BME280;43284;47.042;15.498;2023-04-19T06:08:43;97124.69;;;7.80;96.15
57442;BME280;43284;47.042;15.498;2023-04-19T06:11:09;97116.19;;;7.98;94.35
57442;BME280;43284;47.042;15.498;2023-04-19T06:13:34;97115.00;;;8.07;93.66
57442;BME280;43284;47.042;15.498;2023-04-19T06:16:01;97119.03;;;8.36;90.99
57442;BME280;43284;47.042;15.498;2023-04-19T06:18:27;97111.59;;;8.49;90.85
57442;BME280;43284;47.042;15.498;2023-04-19T06:20:52;97114.00;;;8.74;83.60
57442;BME280;43284;47.042;15.498;2023-04-19T06:23:18;97116.38;;;8.80;85.76
57442;BME280;43284;47.042;15.498;2023-04-19T06:25:44;97111.44;;;8.95;82.36
57442;BME280;43284;47.042;15.498;2023-04-19T06:28:09;97108.06;;;9.12;80.01
57442;BME280;43284;47.042;15.498;2023-04-19T06:30:35;97115.72;;;9.16;79.95
57442;BME280;43284;47.042;15.498;2023-04-19T06:33:01;97114.38;;;9.26;79.12
57442;BME280;43284;47.042;15.498;2023-04-19T06:35:26;97107.31;;;9.49;75.65
57442;BME280;43284;47.042;15.498;2023-04-19T06:37:52;97111.63;;;9.69;78.48
57442;BME280;43284;47.042;15.498;2023-04-19T06:40:17;97103.50;;;9.75;81.21
57442;BME280;43284;47.042;15.498;2023-04-19T06:42:43;97096.16;;;9.83;80.03
57442;BME280;43284;47.042;15.498;2023-04-19T06:45:09;97087.69;;;9.97;74.92
57442;BME280;43284;47.042;15.498;2023-04-19T06:47:35;97092.94;;;10.15;77.36
57442;BME280;43284;47.042;15.498;2023-04-19T06:50:01;97089.97;;;10.22;73.95
57442;BME280;43284;47.042;15.498;2023-04-19T06:52:27;97086.16;;;10.29;71.08
57442;BME280;43284;47.042;15.498;2023-04-19T06:54:53;97087.84;;;10.30;68.36
57442;BME280;43284;47.042;15.498;2023-04-19T06:57:18;97079.25;;;10.46;66.68
57442;BME280;43284;47.042;15.498;2023-04-19T06:59:44;97080.50;;;10.39;68.17
57442;BME280;43284;47.042;15.498;2023-04-19T07:02:10;97078.97;;;10.52;68.11
57442;BME280;43284;47.042;15.498;2023-04-19T07:04:36;97076.44;;;10.50;68.97
57442;BME280;43284;47.042;15.498;2023-04-19T07:07:02;97080.50;;;10.74;66.69
57442;BME280;43284;47.042;15.498;2023-04-19T07:09:28;97074.84;;;11.16;63.13
57442;BME280;43284;47.042;15.498;2023-04-19T07:11:53;97072.81;;;11.21;63.00
57442;BME280;43284;47.042;15.498;2023-04-19T07:14:20;97068.53;;;11.20;63.93
57442;BME280;43284;47.042;15.498;2023-04-19T07:16:46;97072.81;;;11.54;61.42
57442;BME280;43284;47.042;15.498;2023-04-19T07:19:12;97063.25;;;11.53;59.46
57442;BME280;43284;47.042;15.498;2023-04-19T07:21:38;97064.00;;;11.55;61.09
57442;BME280;43284;47.042;15.498;2023-04-19T07:24:06;97060.56;;;11.55;59.58
57442;BME280;43284;47.042;15.498;2023-04-19T07:26:33;97061.56;;;11.68;60.61
57442;BME280;43284;47.042;15.498;2023-04-19T07:28:59;97051.69;;;11.73;60.47
57442;BME280;43284;47.042;15.498;2023-04-19T07:31:26;97050.44;;;11.81;61.36
57442;BME280;43284;47.042;15.498;2023-04-19T07:33:52;97049.84;;;11.91;59.43
57442;BME280;43284;47.042;15.498;2023-04-19T07:36:18;97046.06;;;11.97;59.85
57442;BME280;43284;47.042;15.498;2023-04-19T07:38:43;97040.63;;;12.00;60.62
57442;BME280;43284;47.042;15.498;2023-04-19T07:41:09;97041.38;;;12.18;56.80
57442;BME280;43284;47.042;15.498;2023-04-19T07:43:35;97049.72;;;12.55;56.83
57442;BME280;43284;47.042;15.498;2023-04-19T07:46:07;97039.19;;;12.71;54.62
57442;BME280;43284;47.042;15.498;2023-04-19T07:48:33;97031.34;;;12.85;57.10
57442;BME280;43284;47.042;15.498;2023-04-19T07:51:07;97029.38;;;12.89;57.18
57442;BME280;43284;47.042;15.498;2023-04-19T07:53:33;97022.72;;;12.69;54.81
57442;BME280;43284;47.042;15.498;2023-04-19T07:55:59;97029.84;;;12.81;53.66
57442;BME280;43284;47.042;15.498;2023-04-19T07:58:24;97014.97;;;12.96;57.65
57442;BME280;43284;47.042;15.498;2023-04-19T08:00:50;97025.00;;;13.04;57.38
57442;BME280;43284;47.042;15.498;2023-04-19T08:03:16;97022.47;;;13.02;54.33
57442;BME280;43284;47.042;15.498;2023-04-19T08:05:41;97016.38;;;13.02;54.09
57442;BME280;43284;47.042;15.498;2023-04-19T08:08:07;97012.06;;;13.15;55.19
57442;BME280;43284;47.042;15.498;2023-04-19T08:10:32;97015.91;;;13.52;56.33
57442;BME280;43284;47.042;15.498;2023-04-19T08:12:58;97010.41;;;13.43;51.19
57442;BME280;43284;47.042;15.498;2023-04-19T08:15:24;97007.66;;;13.58;52.48
57442;BME280;43284;47.042;15.498;2023-04-19T08:17:50;97007.94;;;13.39;52.93
57442;BME280;43284;47.042;15.498;2023-04-19T08:20:16;96992.66;;;13.46;53.30
57442;BME280;43284;47.042;15.498;2023-04-19T08:22:42;96991.50;;;13.65;54.34
57442;BME280;43284;47.042;15.498;2023-04-19T08:25:07;96993.38;;;13.63;48.92
57442;BME280;43284;47.042;15.498;2023-04-19T08:27:34;96993.03;;;13.54;49.28
57442;BME280;43284;47.042;15.498;2023-04-19T08:30:00;96994.88;;;13.67;51.99
57442;BME280;43284;47.042;15.498;2023-04-19T08:32:25;96994.91;;;13.79;51.49
57442;BME280;43284;47.042;15.498;2023-04-19T08:34:51;96989.19;;;13.87;51.29
57442;BME280;43284;47.042;15.498;2023-04-19T08:37:17;96980.38;;;14.01;51.19
57442;BME280;43284;47.042;15.498;2023-04-19T08:39:42;96982.88;;;14.30;51.40
57442;BME280;43284;47.042;15.498;2023-04-19T08:42:09;96977.88;;;14.12;51.52
57442;BME280;43284;47.042;15.498;2023-04-19T08:44:35;96975.81;;;14.17;50.21
57442;BME280;43284;47.042;15.498;2023-04-19T08:47:03;96972.56;;;14.27;50.00
57442;BME280;43284;47.042;15.498;2023-04-19T08:49:30;96973.38;;;14.14;46.57
57442;BME280;43284;47.042;15.498;2023-04-19T08:52:00;96966.56;;;14.25;47.00
57442;BME280;43284;47.042;15.498;2023-04-19T08:54:28;96967.53;;;14.36;48.93
57442;BME280;43284;47.042;15.498;2023-04-19T08:56:55;96968.09;;;14.41;49.26
57442;BME280;43284;47.042;15.498;2023-04-19T08:59:21;96963.31;;;14.74;53.93
57442;BME280;43284;47.042;15.498;2023-04-19T09:01:46;96956.66;;;14.55;49.71
57442;BME280;43284;47.042;15.498;2023-04-19T09:04:12;96957.69;;;14.53;49.01
57442;BME280;43284;47.042;15.498;2023-04-19T09:06:39;96948.84;;;14.41;45.24
57442;BME280;43284;47.042;15.498;2023-04-19T09:09:25;96945.16;;;14.43;45.06
57442;BME280;43284;47.042;15.498;2023-04-19T09:11:51;96943.28;;;14.46;48.00
57442;BME280;43284;47.042;15.498;2023-04-19T09:14:18;96934.84;;;14.53;48.65
57442;BME280;43284;47.042;15.498;2023-04-19T09:16:44;96933.41;;;14.75;45.60
57442;BME280;43284;47.042;15.498;2023-04-19T09:19:10;96926.44;;;14.87;47.67
57442;BME280;43284;47.042;15.498;2023-04-19T09:21:37;96927.03;;;15.16;49.22
57442;BME280;43284;47.042;15.498;2023-04-19T09:24:03;96918.13;;;15.42;47.45
57442;BME280;43284;47.042;15.498;2023-04-19T09:26:29;96924.19;;;15.19;44.82
57442;BME280;43284;47.042;15.498;2023-04-19T09:28:59;96925.94;;;14.81;44.17
57442;BME280;43284;47.042;15.498;2023-04-19T09:31:27;96922.78;;;14.76;45.16
57442;BME280;43284;47.042;15.498;2023-04-19T09:33:54;96931.75;;;14.74;45.87
57442;BME280;43284;47.042;15.498;2023-04-19T09:36:29;96927.72;;;14.68;45.03
57442;BME280;43284;47.042;15.498;2023-04-19T09:38:56;96923.44;;;14.67;44.54
57442;BME280;43284;47.042;15.498;2023-04-19T09:41:22;96931.19;;;14.56;46.47
57442;BME280;43284;47.042;15.498;2023-04-19T09:43:47;96927.72;;;14.55;45.14
57442;BME280;43284;47.042;15.498;2023-04-19T09:46:33;96921.16;;;14.35;47.53
57442;BME280;43284;47.042;15.498;2023-04-19T09:49:23;96923.13;;;14.32;48.33
57442;BME280;43284;47.042;15.498;2023-04-19T09:51:55;96914.53;;;14.42;45.90
57442;BME280;43284;47.042;15.498;2023-04-19T09:54:24;96921.47;;;14.31;47.41
57442;BME280;43284;47.042;15.498;2023-04-19T09:56:54;96915.38;;;14.30;48.16
57442;BME280;43284;47.042;15.498;2023-04-19T09:59:19;96918.75;;;14.32;48.98
57442;BME280;43284;47.042;15.498;2023-04-19T10:04:15;96922.00;;;14.36;49.44
57442;BME280;43284;47.042;15.498;2023-04-19T10:06:50;96908.75;;;14.37;47.18
57442;BME280;43284;47.042;15.498;2023-04-19T10:09:20;96915.50;;;14.41;47.06
57442;BME280;43284;47.042;15.498;2023-04-19T10:11:50;96916.31;;;14.42;48.72
57442;BME280;43284;47.042;15.498;2023-04-19T10:14:21;96916.72;;;14.36;51.55
57442;BME280;43284;47.042;15.498;2023-04-19T10:16:47;96915.06;;;14.35;52.31
57442;BME280;43284;47.042;15.498;2023-04-19T10:19:15;96912.94;;;14.27;52.85
57442;BME280;43284;47.042;15.498;2023-04-19T10:21:42;96917.47;;;14.25;53.84
57442;BME280;43284;47.042;15.498;2023-04-19T10:24:08;96919.56;;;14.20;54.81
57442;BME280;43284;47.042;15.498;2023-04-19T10:32:16;96918.00;;;13.90;55.65
57442;BME280;43284;47.042;15.498;2023-04-19T10:34:42;96918.50;;;13.70;57.65
57442;BME280;43284;47.042;15.498;2023-04-19T10:37:12;96920.75;;;13.62;58.35
57442;BME280;43284;47.042;15.498;2023-04-19T10:39:42;96920.97;;;13.58;57.82
57442;BME280;43284;47.042;15.498;2023-04-19T10:42:08;96920.63;;;13.50;58.79
57442;BME280;43284;47.042;15.498;2023-04-19T10:44:33;96915.88;;;13.43;60.35
57442;BME280;43284;47.042;15.498;2023-04-19T10:46:59;96917.31;;;13.34;59.89
57442;BME280;43284;47.042;15.498;2023-04-19T10:49:27;96924.22;;;13.20;59.46
57442;BME280;43284;47.042;15.498;2023-04-19T10:51:53;96915.88;;;13.14;59.59
57442;BME280;43284;47.042;15.498;2023-04-19T10:54:30;96916.91;;;13.11;60.38
57442;BME280;43284;47.042;15.498;2023-04-19T10:56:58;96920.88;;;13.04;61.17
57442;BME280;43284;47.042;15.498;2023-04-19T10:59:25;96924.34;;;13.05;62.16
57442;BME280;43284;47.042;15.498;2023-04-19T11:01:53;96923.88;;;12.98;61.51
57442;BME280;43284;47.042;15.498;2023-04-19T11:07:04;96928.56;;;12.93;64.47
57442;BME280;43284;47.042;15.498;2023-04-19T11:09:39;96927.44;;;12.83;65.46
57442;BME280;43284;47.042;15.498;2023-04-19T11:12:09;96937.56;;;12.74;66.33
57442;BME280;43284;47.042;15.498;2023-04-19T11:17:16;96929.63;;;12.62;67.58
57442;BME280;43284;47.042;15.498;2023-04-19T11:19:55;96927.91;;;12.61;67.55
57442;BME280;43284;47.042;15.498;2023-04-19T11:22:41;96933.16;;;12.61;67.70
57442;BME280;43284;47.042;15.498;2023-04-19T11:25:09;96927.72;;;12.64;68.74
57442;BME280;43284;47.042;15.498;2023-04-19T11:27:36;96932.13;;;12.63;68.50
57442;BME280;43284;47.042;15.498;2023-04-19T11:30:29;96929.41;;;12.65;69.73
57442;BME280;43284;47.042;15.498;2023-04-19T11:32:56;96931.09;;;12.66;69.94
57442;BME280;43284;47.042;15.498;2023-04-19T11:35:24;96930.53;;;12.46;67.59
57442;BME280;43284;47.042;15.498;2023-04-19T11:37:51;96935.38;;;12.38;66.67
57442;BME280;43284;47.042;15.498;2023-04-19T11:40:17;96935.09;;;12.43;66.73
57442;BME280;43284;47.042;15.498;2023-04-19T11:42:44;96939.69;;;12.39;69.30
57442;BME280;43284;47.042;15.498;2023-04-19T11:45:10;96940.91;;;12.33;68.01
57442;BME280;43284;47.042;15.498;2023-04-19T11:47:49;96948.09;;;12.00;69.78
57442;BME280;43284;47.042;15.498;2023-04-19T11:50:32;96945.16;;;11.74;73.05
57442;BME280;43284;47.042;15.498;2023-04-19T11:52:58;96944.59;;;11.69;72.57
57442;BME280;43284;47.042;15.498;2023-04-19T11:55:24;96949.66;;;11.72;74.47
57442;BME280;43284;47.042;15.498;2023-04-19T11:57:51;96944.16;;;11.61;75.61
57442;BME280;43284;47.042;15.498;2023-04-19T12:00:26;96946.53;;;11.65;77.40
57442;BME280;43284;47.042;15.498;2023-04-19T12:02:52;96933.63;;;11.62;78.43
57442;BME280;43284;47.042;15.498;2023-04-19T12:05:18;96931.19;;;11.59;79.59
57442;BME280;43284;47.042;15.498;2023-04-19T12:08:28;96930.94;;;11.48;80.08
57442;BME280;43284;47.042;15.498;2023-04-19T12:10:56;96936.25;;;11.46;81.31
57442;BME280;43284;47.042;15.498;2023-04-19T12:13:24;96932.69;;;11.47;82.42
57442;BME280;43284;47.042;15.498;2023-04-19T12:15:50;96934.41;;;11.48;83.54
57442;BME280;43284;47.042;15.498;2023-04-19T12:18:15;96929.25;;;11.47;84.87
57442;BME280;43284;47.042;15.498;2023-04-19T12:20:46;96925.44;;;11.37;85.80
57442;BME280;43284;47.042;15.498;2023-04-19T12:23:12;96927.06;;;11.39;86.29
57442;BME280;43284;47.042;15.498;2023-04-19T12:25:40;96911.38;;;11.39;86.39
57442;BME280;43284;47.042;15.498;2023-04-19T12:28:06;96910.59;;;11.37;85.95
57442;BME280;43284;47.042;15.498;2023-04-19T12:30:32;96898.50;;;11.34;84.25
57442;BME280;43284;47.042;15.498;2023-04-19T12:32:59;96892.44;;;11.34;84.79
57442;BME280;43284;47.042;15.498;2023-04-19T12:35:25;96896.25;;;11.28;86.00
57442;BME280;43284;47.042;15.498;2023-04-19T12:37:56;96891.88;;;11.29;85.08
57442;BME280;43284;47.042;15.498;2023-04-19T12:40:23;96891.00;;;11.44;85.75
57442;BME280;43284;47.042;15.498;2023-04-19T12:42:49;96896.06;;;11.47;84.70
57442;BME280;43284;47.042;15.498;2023-04-19T12:45:16;96897.03;;;11.61;84.02
57442;BME280;43284;47.042;15.498;2023-04-19T12:47:42;96902.34;;;11.75;84.01
57442;BME280;43284;47.042;15.498;2023-04-19T12:50:09;96898.69;;;11.93;82.94
57442;BME280;43284;47.042;15.498;2023-04-19T12:52:34;96902.25;;;12.07;80.56
57442;BME280;43284;47.042;15.498;2023-04-19T12:55:00;96907.00;;;12.16;81.09
57442;BME280;43284;47.042;15.498;2023-04-19T12:57:26;96892.66;;;12.22;80.84
57442;BME280;43284;47.042;15.498;2023-04-19T12:59:52;96904.78;;;12.39;80.93
57442;BME280;43284;47.042;15.498;2023-04-19T13:02:18;96901.78;;;12.45;79.73
57442;BME280;43284;47.042;15.498;2023-04-19T13:04:43;96895.53;;;12.62;80.89
57442;BME280;43284;47.042;15.498;2023-04-19T13:07:09;96900.59;;;12.79;81.16